Quitandinha, Brazil
Current Conditions -  °F | °C
As of 11:00 AM on Thursday 27 Nov 2014 (Local Time) from SBCT Reporting Station
Scattered Clouds Scattered Clouds  
Wind Chill: 72°   Ceiling: Unl
Heat Index: 72°   Visibility: 6mi
Dew Point: 59°   Wind: 8mph
Humidity: 64%   Direction: 140°SE
Pressure: 30.03"   Gusts: NA
Location:  25.87°S, 49.5°W
Report Text: SBCT 271300Z 14007KT 9999 SCT025 22/15 Q1017
Loading
Personal Weather Stations






























Interactive Weather Map New forecast layout! Learn more

10-Day Weather Forecast

Advertisements
Track Severe Weather on mobile